sensor_id;sensor_type;location;lat;lon;timestamp;P1;durP1;ratioP1;P2;durP2;ratioP2
80384;SDS011;69702;44.618;33.604;2023-04-26T00:02:11;10.52;;;6.75;;
80384;SDS011;69702;44.618;33.604;2023-04-26T00:04:37;9.93;;;6.40;;
80384;SDS011;69702;44.618;33.604;2023-04-26T00:07:04;14.05;;;6.88;;
80384;SDS011;69702;44.618;33.604;2023-04-26T00:09:30;13.82;;;6.97;;
80384;SDS011;69702;44.618;33.604;2023-04-26T00:11:57;13.27;;;8.30;;
80384;SDS011;69702;44.618;33.604;2023-04-26T00:14:23;13.68;;;7.43;;
80384;SDS011;69702;44.618;33.604;2023-04-26T00:16:48;14.17;;;8.10;;
80384;SDS011;69702;44.618;33.604;2023-04-26T00:19:15;13.45;;;7.90;;
80384;SDS011;69702;44.618;33.604;2023-04-26T00:21:41;14.98;;;7.47;;
80384;SDS011;69702;44.618;33.604;2023-04-26T00:24:07;10.40;;;7.07;;
80384;SDS011;69702;44.618;33.604;2023-04-26T00:26:33;10.48;;;7.03;;
80384;SDS011;69702;44.618;33.604;2023-04-26T00:29:00;11.45;;;7.57;;
80384;SDS011;69702;44.618;33.604;2023-04-26T00:31:27;13.80;;;7.03;;
80384;SDS011;69702;44.618;33.604;2023-04-26T00:33:53;13.00;;;6.93;;
80384;SDS011;69702;44.618;33.604;2023-04-26T00:36:19;12.52;;;6.95;;
80384;SDS011;69702;44.618;33.604;2023-04-26T00:38:45;9.95;;;6.90;;
80384;SDS011;69702;44.618;33.604;2023-04-26T00:41:11;11.18;;;7.15;;
80384;SDS011;69702;44.618;33.604;2023-04-26T00:43:37;12.35;;;7.28;;
80384;SDS011;69702;44.618;33.604;2023-04-26T00:46:04;8.88;;;5.72;;
80384;SDS011;69702;44.618;33.604;2023-04-26T00:48:31;10.48;;;5.53;;
80384;SDS011;69702;44.618;33.604;2023-04-26T00:50:57;10.27;;;6.38;;
80384;SDS011;69702;44.618;33.604;2023-04-26T00:53:23;7.63;;;5.50;;
80384;SDS011;69702;44.618;33.604;2023-04-26T00:55:49;10.68;;;6.30;;
80384;SDS011;69702;44.618;33.604;2023-04-26T00:58:16;11.52;;;5.93;;
80384;SDS011;69702;44.618;33.604;2023-04-26T01:00:44;14.90;;;7.32;;
80384;SDS011;69702;44.618;33.604;2023-04-26T01:03:10;9.68;;;5.90;;
80384;SDS011;69702;44.618;33.604;2023-04-26T01:05:36;11.25;;;5.93;;
80384;SDS011;69702;44.618;33.604;2023-04-26T01:08:03;18.27;;;9.05;;
80384;SDS011;69702;44.618;33.604;2023-04-26T01:10:33;20.15;;;9.45;;
80384;SDS011;69702;44.618;33.604;2023-04-26T01:12:59;14.23;;;8.32;;
80384;SDS011;69702;44.618;33.604;2023-04-26T01:15:26;16.55;;;8.02;;
80384;SDS011;69702;44.618;33.604;2023-04-26T01:17:52;18.45;;;8.95;;
80384;SDS011;69702;44.618;33.604;2023-04-26T01:20:19;11.05;;;6.65;;
80384;SDS011;69702;44.618;33.604;2023-04-26T01:22:45;7.82;;;5.10;;
80384;SDS011;69702;44.618;33.604;2023-04-26T01:25:11;11.10;;;6.50;;
80384;SDS011;69702;44.618;33.604;2023-04-26T01:27:37;11.45;;;7.30;;
80384;SDS011;69702;44.618;33.604;2023-04-26T01:30:03;13.40;;;8.30;;
80384;SDS011;69702;44.618;33.604;2023-04-26T01:32:29;17.42;;;8.38;;
80384;SDS011;69702;44.618;33.604;2023-04-26T01:34:56;14.27;;;7.97;;
80384;SDS011;69702;44.618;33.604;2023-04-26T01:37:22;13.20;;;7.88;;
80384;SDS011;69702;44.618;33.604;2023-04-26T01:39:49;10.60;;;6.80;;
80384;SDS011;69702;44.618;33.604;2023-04-26T01:42:15;11.18;;;7.15;;
80384;SDS011;69702;44.618;33.604;2023-04-26T01:44:41;11.30;;;6.80;;
80384;SDS011;69702;44.618;33.604;2023-04-26T01:47:07;11.13;;;6.22;;
80384;SDS011;69702;44.618;33.604;2023-04-26T01:49:33;9.25;;;6.03;;
80384;SDS011;69702;44.618;33.604;2023-04-26T01:51:59;9.73;;;5.80;;
80384;SDS011;69702;44.618;33.604;2023-04-26T01:54:26;12.13;;;7.03;;
80384;SDS011;69702;44.618;33.604;2023-04-26T01:56:52;9.98;;;6.22;;
80384;SDS011;69702;44.618;33.604;2023-04-26T01:59:17;10.88;;;5.82;;
80384;SDS011;69702;44.618;33.604;2023-04-26T02:01:43;7.53;;;5.63;;
80384;SDS011;69702;44.618;33.604;2023-04-26T02:04:09;8.25;;;5.00;;
80384;SDS011;69702;44.618;33.604;2023-04-26T02:06:35;7.05;;;5.00;;
80384;SDS011;69702;44.618;33.604;2023-04-26T02:09:05;12.20;;;6.07;;
80384;SDS011;69702;44.618;33.604;2023-04-26T02:11:31;7.23;;;4.60;;
80384;SDS011;69702;44.618;33.604;2023-04-26T02:13:57;7.45;;;5.53;;
80384;SDS011;69702;44.618;33.604;2023-04-26T02:16:23;8.93;;;5.80;;
80384;SDS011;69702;44.618;33.604;2023-04-26T02:18:49;8.23;;;6.30;;
80384;SDS011;69702;44.618;33.604;2023-04-26T02:21:15;8.80;;;6.20;;
80384;SDS011;69702;44.618;33.604;2023-04-26T02:23:42;10.88;;;7.60;;
80384;SDS011;69702;44.618;33.604;2023-04-26T02:26:09;10.07;;;7.13;;
80384;SDS011;69702;44.618;33.604;2023-04-26T02:28:36;11.70;;;9.65;;
80384;SDS011;69702;44.618;33.604;2023-04-26T02:31:02;11.57;;;7.23;;
80384;SDS011;69702;44.618;33.604;2023-04-26T02:33:29;10.20;;;8.13;;
80384;SDS011;69702;44.618;33.604;2023-04-26T02:35:55;11.80;;;8.57;;
80384;SDS011;69702;44.618;33.604;2023-04-26T02:38:21;10.15;;;7.97;;
80384;SDS011;69702;44.618;33.604;2023-04-26T02:40:47;10.27;;;7.70;;
80384;SDS011;69702;44.618;33.604;2023-04-26T02:43:15;10.20;;;7.30;;
80384;SDS011;69702;44.618;33.604;2023-04-26T02:45:41;10.13;;;8.48;;
80384;SDS011;69702;44.618;33.604;2023-04-26T02:48:09;9.18;;;7.32;;
80384;SDS011;69702;44.618;33.604;2023-04-26T02:50:36;8.63;;;6.70;;
80384;SDS011;69702;44.618;33.604;2023-04-26T02:53:03;11.32;;;6.85;;
80384;SDS011;69702;44.618;33.604;2023-04-26T02:55:29;10.65;;;6.15;;
80384;SDS011;69702;44.618;33.604;2023-04-26T02:57:56;10.23;;;6.70;;
80384;SDS011;69702;44.618;33.604;2023-04-26T03:00:23;10.25;;;6.72;;
80384;SDS011;69702;44.618;33.604;2023-04-26T03:02:49;11.50;;;7.22;;
80384;SDS011;69702;44.618;33.604;2023-04-26T03:05:16;12.38;;;7.45;;
80384;SDS011;69702;44.618;33.604;2023-04-26T03:07:42;16.13;;;8.07;;
80384;SDS011;69702;44.618;33.604;2023-04-26T03:10:08;8.48;;;5.82;;
80384;SDS011;69702;44.618;33.604;2023-04-26T03:12:35;8.07;;;4.53;;
80384;SDS011;69702;44.618;33.604;2023-04-26T03:15:01;7.78;;;5.07;;
80384;SDS011;69702;44.618;33.604;2023-04-26T03:17:29;9.65;;;4.82;;
80384;SDS011;69702;44.618;33.604;2023-04-26T03:19:55;7.43;;;4.97;;
80384;SDS011;69702;44.618;33.604;2023-04-26T03:22:21;15.10;;;6.70;;
80384;SDS011;69702;44.618;33.604;2023-04-26T03:24:47;8.73;;;5.17;;
80384;SDS011;69702;44.618;33.604;2023-04-26T03:27:13;7.85;;;4.82;;
80384;SDS011;69702;44.618;33.604;2023-04-26T03:29:40;10.90;;;5.60;;
80384;SDS011;69702;44.618;33.604;2023-04-26T03:32:06;11.95;;;6.28;;
80384;SDS011;69702;44.618;33.604;2023-04-26T03:34:32;11.53;;;6.57;;
80384;SDS011;69702;44.618;33.604;2023-04-26T03:36:58;10.80;;;6.53;;
80384;SDS011;69702;44.618;33.604;2023-04-26T03:39:24;15.50;;;6.72;;
80384;SDS011;69702;44.618;33.604;2023-04-26T03:41:51;18.42;;;7.70;;
80384;SDS011;69702;44.618;33.604;2023-04-26T03:44:17;16.90;;;7.27;;
80384;SDS011;69702;44.618;33.604;2023-04-26T03:46:43;17.15;;;7.50;;
80384;SDS011;69702;44.618;33.604;2023-04-26T03:49:09;17.23;;;8.07;;
80384;SDS011;69702;44.618;33.604;2023-04-26T03:51:35;25.83;;;11.87;;
80384;SDS011;69702;44.618;33.604;2023-04-26T03:54:01;19.85;;;12.15;;
80384;SDS011;69702;44.618;33.604;2023-04-26T03:56:26;18.85;;;10.27;;
80384;SDS011;69702;44.618;33.604;2023-04-26T03:58:52;23.15;;;9.38;;
80384;SDS011;69702;44.618;33.604;2023-04-26T04:01:18;23.63;;;10.50;;
80384;SDS011;69702;44.618;33.604;2023-04-26T04:03:44;25.88;;;9.95;;
80384;SDS011;69702;44.618;33.604;2023-04-26T04:06:10;19.27;;;10.80;;
80384;SDS011;69702;44.618;33.604;2023-04-26T04:08:37;26.27;;;10.07;;
80384;SDS011;69702;44.618;33.604;2023-04-26T04:11:04;16.13;;;9.55;;
80384;SDS011;69702;44.618;33.604;2023-04-26T04:13:32;19.05;;;9.55;;
80384;SDS011;69702;44.618;33.604;2023-04-26T04:15:58;18.20;;;9.40;;
80384;SDS011;69702;44.618;33.604;2023-04-26T04:18:24;21.52;;;9.90;;
80384;SDS011;69702;44.618;33.604;2023-04-26T04:20:50;16.25;;;9.45;;
80384;SDS011;69702;44.618;33.604;2023-04-26T04:23:16;14.57;;;8.55;;
80384;SDS011;69702;44.618;33.604;2023-04-26T04:25:42;21.27;;;8.80;;
80384;SDS011;69702;44.618;33.604;2023-04-26T04:28:11;15.43;;;9.40;;
80384;SDS011;69702;44.618;33.604;2023-04-26T04:30:38;13.30;;;8.43;;
80384;SDS011;69702;44.618;33.604;2023-04-26T04:33:04;25.33;;;10.25;;
80384;SDS011;69702;44.618;33.604;2023-04-26T04:35:31;17.70;;;9.98;;
80384;SDS011;69702;44.618;33.604;2023-04-26T04:38:00;20.33;;;9.33;;
80384;SDS011;69702;44.618;33.604;2023-04-26T04:40:28;20.35;;;9.82;;
80384;SDS011;69702;44.618;33.604;2023-04-26T04:42:55;22.10;;;9.07;;
80384;SDS011;69702;44.618;33.604;2023-04-26T04:45:22;18.27;;;8.65;;
80384;SDS011;69702;44.618;33.604;2023-04-26T04:47:50;14.05;;;6.95;;
80384;SDS011;69702;44.618;33.604;2023-04-26T04:50:18;12.57;;;6.57;;
80384;SDS011;69702;44.618;33.604;2023-04-26T04:52:45;14.30;;;6.13;;
80384;SDS011;69702;44.618;33.604;2023-04-26T04:55:11;9.60;;;5.88;;
80384;SDS011;69702;44.618;33.604;2023-04-26T04:57:38;8.13;;;5.53;;
80384;SDS011;69702;44.618;33.604;2023-04-26T05:00:05;9.32;;;5.35;;
80384;SDS011;69702;44.618;33.604;2023-04-26T05:02:39;14.40;;;7.30;;
80384;SDS011;69702;44.618;33.604;2023-04-26T05:05:05;12.02;;;6.47;;
80384;SDS011;69702;44.618;33.604;2023-04-26T05:07:32;14.88;;;5.63;;
80384;SDS011;69702;44.618;33.604;2023-04-26T05:10:00;12.68;;;6.13;;
80384;SDS011;69702;44.618;33.604;2023-04-26T05:12:26;11.07;;;5.57;;
80384;SDS011;69702;44.618;33.604;2023-04-26T05:14:54;15.70;;;6.80;;
80384;SDS011;69702;44.618;33.604;2023-04-26T05:17:20;12.77;;;6.18;;
80384;SDS011;69702;44.618;33.604;2023-04-26T05:19:46;18.05;;;6.47;;
80384;SDS011;69702;44.618;33.604;2023-04-26T05:22:12;13.05;;;6.40;;
80384;SDS011;69702;44.618;33.604;2023-04-26T05:24:47;15.03;;;6.47;;
80384;SDS011;69702;44.618;33.604;2023-04-26T05:27:14;15.38;;;7.88;;
80384;SDS011;69702;44.618;33.604;2023-04-26T05:29:47;15.55;;;7.38;;
80384;SDS011;69702;44.618;33.604;2023-04-26T05:32:33;14.82;;;6.95;;
80384;SDS011;69702;44.618;33.604;2023-04-26T05:35:12;10.15;;;6.43;;
80384;SDS011;69702;44.618;33.604;2023-04-26T05:37:38;6.80;;;4.77;;
80384;SDS011;69702;44.618;33.604;2023-04-26T05:40:06;10.07;;;5.60;;
80384;SDS011;69702;44.618;33.604;2023-04-26T05:42:34;8.45;;;5.30;;
80384;SDS011;69702;44.618;33.604;2023-04-26T05:45:01;11.05;;;6.82;;
80384;SDS011;69702;44.618;33.604;2023-04-26T05:47:28;22.95;;;9.13;;
80384;SDS011;69702;44.618;33.604;2023-04-26T05:49:54;22.63;;;12.33;;
80384;SDS011;69702;44.618;33.604;2023-04-26T05:52:20;18.40;;;10.57;;
80384;SDS011;69702;44.618;33.604;2023-04-26T05:54:47;17.20;;;8.60;;
80384;SDS011;69702;44.618;33.604;2023-04-26T05:57:13;20.17;;;8.50;;
80384;SDS011;69702;44.618;33.604;2023-04-26T05:59:39;16.95;;;7.72;;
80384;SDS011;69702;44.618;33.604;2023-04-26T06:02:05;14.63;;;8.45;;
80384;SDS011;69702;44.618;33.604;2023-04-26T06:04:31;19.52;;;7.35;;
80384;SDS011;69702;44.618;33.604;2023-04-26T06:07:08;14.32;;;6.57;;
80384;SDS011;69702;44.618;33.604;2023-04-26T06:09:34;9.90;;;6.13;;
80384;SDS011;69702;44.618;33.604;2023-04-26T06:12:00;13.32;;;6.60;;
80384;SDS011;69702;44.618;33.604;2023-04-26T06:14:26;16.05;;;8.15;;
80384;SDS011;69702;44.618;33.604;2023-04-26T06:16:52;16.50;;;7.82;;
80384;SDS011;69702;44.618;33.604;2023-04-26T06:19:18;17.77;;;10.33;;
80384;SDS011;69702;44.618;33.604;2023-04-26T06:21:44;25.48;;;11.45;;
80384;SDS011;69702;44.618;33.604;2023-04-26T06:24:10;12.48;;;8.10;;
80384;SDS011;69702;44.618;33.604;2023-04-26T06:26:36;21.97;;;10.90;;
80384;SDS011;69702;44.618;33.604;2023-04-26T06:29:03;15.23;;;7.50;;
80384;SDS011;69702;44.618;33.604;2023-04-26T06:31:29;20.45;;;7.30;;
80384;SDS011;69702;44.618;33.604;2023-04-26T06:33:56;27.17;;;9.13;;
80384;SDS011;69702;44.618;33.604;2023-04-26T06:36:24;24.70;;;8.00;;
80384;SDS011;69702;44.618;33.604;2023-04-26T06:38:50;27.23;;;10.18;;
80384;SDS011;69702;44.618;33.604;2023-04-26T06:41:16;24.98;;;8.77;;
80384;SDS011;69702;44.618;33.604;2023-04-26T06:43:42;19.70;;;7.40;;
80384;SDS011;69702;44.618;33.604;2023-04-26T06:46:29;17.63;;;6.93;;
80384;SDS011;69702;44.618;33.604;2023-04-26T06:48:55;19.15;;;6.57;;
80384;SDS011;69702;44.618;33.604;2023-04-26T06:51:23;13.15;;;9.20;;
80384;SDS011;69702;44.618;33.604;2023-04-26T06:53:49;16.63;;;7.20;;
80384;SDS011;69702;44.618;33.604;2023-04-26T06:56:16;15.63;;;6.90;;
80384;SDS011;69702;44.618;33.604;2023-04-26T06:59:04;12.30;;;5.78;;
80384;SDS011;69702;44.618;33.604;2023-04-26T07:01:30;12.60;;;6.25;;
80384;SDS011;69702;44.618;33.604;2023-04-26T07:04:01;14.90;;;9.20;;
80384;SDS011;69702;44.618;33.604;2023-04-26T07:06:28;9.82;;;5.55;;
80384;SDS011;69702;44.618;33.604;2023-04-26T07:08:58;12.60;;;7.13;;
80384;SDS011;69702;44.618;33.604;2023-04-26T07:11:25;16.65;;;6.30;;
80384;SDS011;69702;44.618;33.604;2023-04-26T07:13:51;12.45;;;7.18;;
80384;SDS011;69702;44.618;33.604;2023-04-26T07:16:17;13.32;;;5.60;;
80384;SDS011;69702;44.618;33.604;2023-04-26T07:18:43;11.97;;;5.50;;
80384;SDS011;69702;44.618;33.604;2023-04-26T07:21:08;9.40;;;5.70;;
80384;SDS011;69702;44.618;33.604;2023-04-26T07:23:34;8.63;;;5.40;;
80384;SDS011;69702;44.618;33.604;2023-04-26T07:26:00;13.33;;;6.23;;
80384;SDS011;69702;44.618;33.604;2023-04-26T07:28:29;12.15;;;5.88;;
80384;SDS011;69702;44.618;33.604;2023-04-26T07:30:56;8.35;;;5.50;;
80384;SDS011;69702;44.618;33.604;2023-04-26T07:33:23;13.23;;;5.97;;
80384;SDS011;69702;44.618;33.604;2023-04-26T07:35:52;13.32;;;6.80;;
80384;SDS011;69702;44.618;33.604;2023-04-26T07:38:22;10.70;;;5.40;;
80384;SDS011;69702;44.618;33.604;2023-04-26T07:40:48;10.20;;;5.10;;
80384;SDS011;69702;44.618;33.604;2023-04-26T07:43:15;10.27;;;5.80;;
80384;SDS011;69702;44.618;33.604;2023-04-26T07:45:41;9.70;;;5.18;;
80384;SDS011;69702;44.618;33.604;2023-04-26T07:48:07;14.05;;;5.82;;
80384;SDS011;69702;44.618;33.604;2023-04-26T07:50:33;11.00;;;5.43;;
80384;SDS011;69702;44.618;33.604;2023-04-26T07:52:59;11.65;;;6.15;;
80384;SDS011;69702;44.618;33.604;2023-04-26T07:55:25;10.52;;;5.82;;
80384;SDS011;69702;44.618;33.604;2023-04-26T07:57:51;11.83;;;5.70;;
80384;SDS011;69702;44.618;33.604;2023-04-26T08:00:17;12.00;;;5.93;;
80384;SDS011;69702;44.618;33.604;2023-04-26T08:02:43;10.80;;;5.38;;
80384;SDS011;69702;44.618;33.604;2023-04-26T08:05:13;11.52;;;5.80;;
80384;SDS011;69702;44.618;33.604;2023-04-26T08:07:39;10.07;;;5.87;;
80384;SDS011;69702;44.618;33.604;2023-04-26T08:10:06;10.07;;;5.97;;
80384;SDS011;69702;44.618;33.604;2023-04-26T08:12:33;8.48;;;5.35;;
80384;SDS011;69702;44.618;33.604;2023-04-26T08:15:00;7.50;;;4.72;;
80384;SDS011;69702;44.618;33.604;2023-04-26T08:17:26;7.05;;;4.93;;
80384;SDS011;69702;44.618;33.604;2023-04-26T08:19:52;7.87;;;4.20;;
80384;SDS011;69702;44.618;33.604;2023-04-26T08:22:18;8.00;;;4.55;;
80384;SDS011;69702;44.618;33.604;2023-04-26T08:24:48;9.15;;;4.43;;
80384;SDS011;69702;44.618;33.604;2023-04-26T08:27:15;9.35;;;4.90;;
80384;SDS011;69702;44.618;33.604;2023-04-26T08:29:42;8.27;;;5.05;;
80384;SDS011;69702;44.618;33.604;2023-04-26T08:32:08;13.20;;;9.73;;
80384;SDS011;69702;44.618;33.604;2023-04-26T08:34:33;8.15;;;5.07;;
80384;SDS011;69702;44.618;33.604;2023-04-26T08:36:59;8.60;;;5.45;;
80384;SDS011;69702;44.618;33.604;2023-04-26T08:39:25;8.40;;;5.37;;
80384;SDS011;69702;44.618;33.604;2023-04-26T08:41:52;9.25;;;5.45;;
80384;SDS011;69702;44.618;33.604;2023-04-26T08:44:22;18.15;;;8.02;;
80384;SDS011;69702;44.618;33.604;2023-04-26T08:49:38;12.07;;;6.10;;
80384;SDS011;69702;44.618;33.604;2023-04-26T08:52:09;13.57;;;7.43;;
80384;SDS011;69702;44.618;33.604;2023-04-26T08:54:36;11.57;;;7.90;;
80384;SDS011;69702;44.618;33.604;2023-04-26T08:57:03;8.40;;;4.90;;
80384;SDS011;69702;44.618;33.604;2023-04-26T08:59:29;9.30;;;5.90;;
80384;SDS011;69702;44.618;33.604;2023-04-26T09:01:55;7.93;;;4.80;;
80384;SDS011;69702;44.618;33.604;2023-04-26T09:04:22;8.48;;;5.30;;
80384;SDS011;69702;44.618;33.604;2023-04-26T09:06:48;11.27;;;5.07;;
80384;SDS011;69702;44.618;33.604;2023-04-26T09:09:16;8.18;;;4.95;;
80384;SDS011;69702;44.618;33.604;2023-04-26T09:11:51;7.97;;;4.32;;
80384;SDS011;69702;44.618;33.604;2023-04-26T09:14:20;8.03;;;5.43;;
80384;SDS011;69702;44.618;33.604;2023-04-26T09:16:46;8.85;;;5.20;;
80384;SDS011;69702;44.618;33.604;2023-04-26T09:19:12;9.80;;;4.65;;
80384;SDS011;69702;44.618;33.604;2023-04-26T09:21:41;8.70;;;6.30;;
80384;SDS011;69702;44.618;33.604;2023-04-26T09:24:11;9.77;;;6.82;;
80384;SDS011;69702;44.618;33.604;2023-04-26T09:26:38;9.18;;;5.07;;
80384;SDS011;69702;44.618;33.604;2023-04-26T09:29:14;11.88;;;6.13;;
80384;SDS011;69702;44.618;33.604;2023-04-26T09:31:42;9.55;;;6.53;;
80384;SDS011;69702;44.618;33.604;2023-04-26T09:34:10;9.07;;;5.83;;
80384;SDS011;69702;44.618;33.604;2023-04-26T09:36:47;10.85;;;6.50;;
80384;SDS011;69702;44.618;33.604;2023-04-26T09:39:13;8.52;;;5.32;;
80384;SDS011;69702;44.618;33.604;2023-04-26T09:41:42;9.30;;;5.50;;
80384;SDS011;69702;44.618;33.604;2023-04-26T09:44:27;8.05;;;5.30;;
80384;SDS011;69702;44.618;33.604;2023-04-26T09:47:02;8.50;;;4.60;;
80384;SDS011;69702;44.618;33.604;2023-04-26T09:49:30;9.65;;;5.00;;
80384;SDS011;69702;44.618;33.604;2023-04-26T09:52:01;8.90;;;4.63;;
80384;SDS011;69702;44.618;33.604;2023-04-26T09:54:40;8.27;;;4.32;;
80384;SDS011;69702;44.618;33.604;2023-04-26T09:57:08;10.30;;;5.55;;
80384;SDS011;69702;44.618;33.604;2023-04-26T09:59:41;8.60;;;6.80;;
80384;SDS011;69702;44.618;33.604;2023-04-26T10:02:09;10.45;;;6.25;;
80384;SDS011;69702;44.618;33.604;2023-04-26T10:04:39;9.77;;;4.82;;
80384;SDS011;69702;44.618;33.604;2023-04-26T10:07:06;8.30;;;5.85;;
80384;SDS011;69702;44.618;33.604;2023-04-26T10:09:31;8.50;;;5.57;;
80384;SDS011;69702;44.618;33.604;2023-04-26T10:11:57;8.13;;;5.47;;
80384;SDS011;69702;44.618;33.604;2023-04-26T10:14:24;9.50;;;4.55;;
80384;SDS011;69702;44.618;33.604;2023-04-26T10:16:51;10.70;;;5.60;;
80384;SDS011;69702;44.618;33.604;2023-04-26T10:19:20;9.47;;;5.73;;
80384;SDS011;69702;44.618;33.604;2023-04-26T10:21:46;6.90;;;4.60;;
80384;SDS011;69702;44.618;33.604;2023-04-26T10:24:13;8.38;;;5.03;;
80384;SDS011;69702;44.618;33.604;2023-04-26T10:26:46;10.05;;;5.90;;
80384;SDS011;69702;44.618;33.604;2023-04-26T10:29:19;9.20;;;5.35;;
80384;SDS011;69702;44.618;33.604;2023-04-26T10:34:27;12.82;;;6.85;;
80384;SDS011;69702;44.618;33.604;2023-04-26T10:39:51;8.80;;;6.07;;
80384;SDS011;69702;44.618;33.604;2023-04-26T10:42:49;10.65;;;5.50;;
80384;SDS011;69702;44.618;33.604;2023-04-26T10:45:25;7.53;;;5.17;;
80384;SDS011;69702;44.618;33.604;2023-04-26T10:53:28;9.02;;;5.57;;
80384;SDS011;69702;44.618;33.604;2023-04-26T10:55:54;10.18;;;6.57;;
80384;SDS011;69702;44.618;33.604;2023-04-26T10:58:33;9.17;;;5.93;;
80384;SDS011;69702;44.618;33.604;2023-04-26T11:01:09;11.70;;;6.00;;
80384;SDS011;69702;44.618;33.604;2023-04-26T11:04:00;8.85;;;5.57;;
80384;SDS011;69702;44.618;33.604;2023-04-26T11:09:37;8.00;;;5.05;;
80384;SDS011;69702;44.618;33.604;2023-04-26T11:12:13;8.57;;;5.37;;
80384;SDS011;69702;44.618;33.604;2023-04-26T11:14:40;10.70;;;8.98;;
80384;SDS011;69702;44.618;33.604;2023-04-26T11:17:07;10.63;;;7.25;;
80384;SDS011;69702;44.618;33.604;2023-04-26T11:19:33;10.85;;;7.57;;
80384;SDS011;69702;44.618;33.604;2023-04-26T11:21:59;9.18;;;6.75;;
80384;SDS011;69702;44.618;33.604;2023-04-26T11:24:29;12.37;;;9.27;;
80384;SDS011;69702;44.618;33.604;2023-04-26T11:26:56;11.35;;;7.53;;
80384;SDS011;69702;44.618;33.604;2023-04-26T11:29:24;13.40;;;8.13;;
80384;SDS011;69702;44.618;33.604;2023-04-26T11:31:51;11.57;;;6.45;;
80384;SDS011;69702;44.618;33.604;2023-04-26T11:34:36;11.00;;;6.00;;
80384;SDS011;69702;44.618;33.604;2023-04-26T11:37:06;12.73;;;6.70;;
80384;SDS011;69702;44.618;33.604;2023-04-26T11:39:32;16.25;;;9.38;;
80384;SDS011;69702;44.618;33.604;2023-04-26T11:42:08;11.00;;;6.20;;
80384;SDS011;69702;44.618;33.604;2023-04-26T11:44:36;15.88;;;10.50;;
80384;SDS011;69702;44.618;33.604;2023-04-26T11:47:03;9.70;;;6.30;;
80384;SDS011;69702;44.618;33.604;2023-04-26T11:49:30;12.07;;;7.57;;
80384;SDS011;69702;44.618;33.604;2023-04-26T11:51:56;15.30;;;8.90;;
80384;SDS011;69702;44.618;33.604;2023-04-26T11:54:25;20.05;;;12.30;;
80384;SDS011;69702;44.618;33.604;2023-04-26T11:56:53;23.95;;;15.20;;
80384;SDS011;69702;44.618;33.604;2023-04-26T11:59:22;20.87;;;9.53;;
80384;SDS011;69702;44.618;33.604;2023-04-26T12:01:49;18.25;;;9.00;;
80384;SDS011;69702;44.618;33.604;2023-04-26T12:04:16;12.73;;;7.28;;
80384;SDS011;69702;44.618;33.604;2023-04-26T12:06:43;13.93;;;7.50;;
80384;SDS011;69702;44.618;33.604;2023-04-26T12:09:10;14.97;;;7.50;;
80384;SDS011;69702;44.618;33.604;2023-04-26T12:11:37;9.75;;;6.30;;
80384;SDS011;69702;44.618;33.604;2023-04-26T12:14:03;11.50;;;6.25;;
80384;SDS011;69702;44.618;33.604;2023-04-26T12:16:30;9.55;;;5.68;;
80384;SDS011;69702;44.618;33.604;2023-04-26T12:18:56;10.18;;;5.38;;
80384;SDS011;69702;44.618;33.604;2023-04-26T12:21:22;10.17;;;5.60;;
80384;SDS011;69702;44.618;33.604;2023-04-26T12:23:49;12.07;;;5.38;;
80384;SDS011;69702;44.618;33.604;2023-04-26T12:26:15;10.35;;;5.68;;
80384;SDS011;69702;44.618;33.604;2023-04-26T12:28:41;10.07;;;5.77;;
80384;SDS011;69702;44.618;33.604;2023-04-26T12:31:07;9.13;;;6.10;;
80384;SDS011;69702;44.618;33.604;2023-04-26T12:33:33;8.70;;;5.97;;
80384;SDS011;69702;44.618;33.604;2023-04-26T12:36:08;11.82;;;5.88;;
80384;SDS011;69702;44.618;33.604;2023-04-26T12:38:36;11.18;;;6.53;;
80384;SDS011;69702;44.618;33.604;2023-04-26T12:41:03;12.30;;;6.03;;
80384;SDS011;69702;44.618;33.604;2023-04-26T12:43:30;14.32;;;5.90;;
80384;SDS011;69702;44.618;33.604;2023-04-26T12:45:56;10.82;;;6.30;;
80384;SDS011;69702;44.618;33.604;2023-04-26T12:48:21;11.10;;;5.55;;
80384;SDS011;69702;44.618;33.604;2023-04-26T12:50:47;9.17;;;5.23;;
80384;SDS011;69702;44.618;33.604;2023-04-26T12:53:13;12.00;;;6.80;;
80384;SDS011;69702;44.618;33.604;2023-04-26T12:55:39;8.68;;;5.97;;
80384;SDS011;69702;44.618;33.604;2023-04-26T12:58:05;13.60;;;5.80;;
80384;SDS011;69702;44.618;33.604;2023-04-26T13:00:31;11.93;;;5.88;;
80384;SDS011;69702;44.618;33.604;2023-04-26T13:02:57;13.05;;;5.50;;
80384;SDS011;69702;44.618;33.604;2023-04-26T13:05:23;11.40;;;6.30;;
80384;SDS011;69702;44.618;33.604;2023-04-26T13:07:49;11.57;;;5.90;;
80384;SDS011;69702;44.618;33.604;2023-04-26T13:10:16;9.45;;;5.07;;
80384;SDS011;69702;44.618;33.604;2023-04-26T13:12:42;10.57;;;6.30;;
80384;SDS011;69702;44.618;33.604;2023-04-26T13:15:08;14.45;;;6.40;;
80384;SDS011;69702;44.618;33.604;2023-04-26T13:17:35;12.93;;;5.80;;
80384;SDS011;69702;44.618;33.604;2023-04-26T13:20:05;10.27;;;5.25;;
80384;SDS011;69702;44.618;33.604;2023-04-26T13:22:32;10.65;;;6.25;;
80384;SDS011;69702;44.618;33.604;2023-04-26T13:24:58;16.98;;;6.75;;
80384;SDS011;69702;44.618;33.604;2023-04-26T13:27:24;16.00;;;6.87;;
80384;SDS011;69702;44.618;33.604;2023-04-26T13:29:50;19.05;;;7.28;;
80384;SDS011;69702;44.618;33.604;2023-04-26T13:32:16;18.40;;;6.82;;
80384;SDS011;69702;44.618;33.604;2023-04-26T13:34:42;16.48;;;6.57;;
80384;SDS011;69702;44.618;33.604;2023-04-26T13:37:10;15.88;;;6.15;;
80384;SDS011;69702;44.618;33.604;2023-04-26T13:51:21;12.25;;;5.57;;
80384;SDS011;69702;44.618;33.604;2023-04-26T13:53:49;11.63;;;5.85;;
80384;SDS011;69702;44.618;33.604;2023-04-26T13:56:19;15.02;;;6.32;;
80384;SDS011;69702;44.618;33.604;2023-04-26T13:58:45;14.20;;;6.20;;
80384;SDS011;69702;44.618;33.604;2023-04-26T14:01:11;11.07;;;5.50;;
80384;SDS011;69702;44.618;33.604;2023-04-26T14:03:38;13.25;;;6.65;;
80384;SDS011;69702;44.618;33.604;2023-04-26T14:06:05;13.55;;;6.10;;
80384;SDS011;69702;44.618;33.604;2023-04-26T14:08:31;15.20;;;6.30;;
80384;SDS011;69702;44.618;33.604;2023-04-26T14:10:57;10.50;;;6.97;;
80384;SDS011;69702;44.618;33.604;2023-04-26T14:13:23;12.18;;;5.70;;
80384;SDS011;69702;44.618;33.604;2023-04-26T14:15:49;10.65;;;5.85;;
80384;SDS011;69702;44.618;33.604;2023-04-26T14:18:15;12.63;;;5.97;;
80384;SDS011;69702;44.618;33.604;2023-04-26T14:20:41;9.73;;;5.53;;
80384;SDS011;69702;44.618;33.604;2023-04-26T14:23:07;12.60;;;6.32;;
80384;SDS011;69702;44.618;33.604;2023-04-26T14:25:34;9.25;;;6.72;;
80384;SDS011;69702;44.618;33.604;2023-04-26T14:28:01;11.00;;;6.55;;
80384;SDS011;69702;44.618;33.604;2023-04-26T14:30:27;20.53;;;10.37;;
80384;SDS011;69702;44.618;33.604;2023-04-26T14:32:57;23.55;;;11.98;;
80384;SDS011;69702;44.618;33.604;2023-04-26T14:35:24;18.42;;;9.88;;
80384;SDS011;69702;44.618;33.604;2023-04-26T14:37:51;18.15;;;8.10;;
80384;SDS011;69702;44.618;33.604;2023-04-26T14:40:17;16.10;;;7.50;;
80384;SDS011;69702;44.618;33.604;2023-04-26T14:42:44;15.38;;;7.95;;
80384;SDS011;69702;44.618;33.604;2023-04-26T14:45:10;16.00;;;8.85;;
80384;SDS011;69702;44.618;33.604;2023-04-26T14:47:37;16.67;;;7.30;;
80384;SDS011;69702;44.618;33.604;2023-04-26T14:50:03;19.95;;;7.70;;
80384;SDS011;69702;44.618;33.604;2023-04-26T14:52:34;22.13;;;8.67;;
80384;SDS011;69702;44.618;33.604;2023-04-26T14:55:01;18.95;;;7.50;;